Time;durP1;ratioP1;P1;durP2;ratioP2;P2;SDS_P1;SDS_P2;PMS_P1;PMS_P2;Temp;Humidity;BMP_temperature;BMP_pressure;BME280_temperature;BME280_humidity;BME280_pressure;Samples;Min_cycle;Max_cycle;Signal;HPM_P1;HPM_P2
2021/05/18 00:02:21;;;;;;;8.93;4.62;;;;;;;16.47;90.74;99075.28;1802407;79;21287;-82
2021/05/18 00:05:28;;;;;;;8.03;4.22;;;;;;;16.44;90.50;99077.14;1802466;79;21819;-82
2021/05/18 00:11:42;;;;;;;10.58;4.67;;;;;;;16.39;90.41;99084.77;1802911;79;21287;-82
2021/05/18 00:11:44;;;;;;;8.25;4.55;;;;;;;16.31;90.35;99079.63;1803156;79;21830;-82
2021/05/18 00:14:50;;;;;;;7.15;4.45;;;;;;;16.23;90.46;99074.47;1801587;79;21308;-82
2021/05/18 00:17:57;;;;;;;6.05;4.00;;;;;;;16.17;90.69;99072.70;1801524;79;21292;-82
2021/05/18 00:21:02;;;;;;;9.80;4.55;;;;;;;16.09;90.99;99074.77;1801548;79;21283;-83
2021/05/18 00:24:07;;;;;;;18.57;4.25;;;;;;;16.07;91.24;99074.14;1802209;79;21296;-82
2021/05/18 00:27:13;;;;;;;9.28;4.60;;;;;;;16.07;91.44;99067.25;1802979;79;21217;-82
2021/05/18 00:30:20;;;;;;;12.73;4.62;;;;;;;16.07;91.65;99070.55;1801349;79;21369;-82
2021/05/18 00:33:29;;;;;;;6.85;3.75;;;;;;;16.08;91.75;99071.68;1802747;79;21330;-83
2021/05/18 00:36:36;;;;;;;8.18;3.98;;;;;;;16.07;91.64;99076.07;1803258;79;21859;-82
2021/05/18 00:39:44;;;;;;;10.25;3.70;;;;;;;16.05;91.50;99063.08;1802889;79;21283;-83
2021/05/18 00:42:58;;;;;;;5.95;3.40;;;;;;;16.00;91.43;99058.28;1802917;79;21216;-83
2021/05/18 00:46:04;;;;;;;11.85;3.58;;;;;;;15.95;91.47;99058.17;1802987;79;21288;-82
2021/05/18 00:49:11;;;;;;;9.13;3.22;;;;;;;15.95;91.70;99044.89;1803005;79;21288;-82
2021/05/18 00:52:15;;;;;;;9.30;3.80;;;;;;;15.94;91.64;99039.09;1803032;79;21275;-82
2021/05/18 00:58:43;;;;;;;7.12;3.33;;;;;;;15.89;91.48;99030.71;1802892;79;21343;-83
2021/05/18 01:01:51;;;;;;;10.18;3.00;;;;;;;15.86;91.40;99029.29;1803078;79;21181;-83
2021/05/18 01:05:07;;;;;;;6.12;3.05;;;;;;;15.86;91.28;99026.53;1801488;79;21331;-82
2021/05/18 01:08:04;;;;;;;4.58;2.83;;;;;;;15.81;90.73;99030.02;1801620;79;21827;-82
2021/05/18 01:11:12;;;;;;;6.03;3.20;;;;;;;15.74;90.38;99037.55;1803164;79;21193;-83
2021/05/18 01:14:19;;;;;;;7.97;2.90;;;;;;;15.71;90.48;99036.65;1802170;79;21213;-82
2021/05/18 01:17:24;;;;;;;5.70;3.00;;;;;;;15.72;90.50;99029.25;1802553;79;21287;-82
2021/05/18 01:20:32;;;;;;;6.90;3.33;;;;;;;15.70;90.28;99028.62;1802628;79;21161;-83
2021/05/18 01:23:39;;;;;;;5.60;3.30;;;;;;;15.68;89.93;99033.56;1802922;79;21342;-82
2021/05/18 01:26:46;;;;;;;8.23;2.67;;;;;;;15.64;89.80;99031.81;1803017;79;21177;-83
2021/05/18 01:29:50;;;;;;;7.12;2.67;;;;;;;15.57;89.32;99044.31;1803028;79;21192;-83
2021/05/18 01:32:57;;;;;;;11.70;2.90;;;;;;;15.51;89.19;99049.39;1781889;79;21918;-83
2021/05/18 01:36:07;;;;;;;5.05;2.90;;;;;;;15.42;89.14;99054.95;1801450;79;21271;-83
2021/05/18 01:45:47;;;;;;;6.05;2.87;;;;;;;15.22;89.47;99070.98;1801699;79;21732;-82
2021/05/18 01:48:52;;;;;;;5.75;2.83;;;;;;;15.15;89.67;99081.25;1802828;79;21850;-83
2021/05/18 01:52:04;;;;;;;7.75;2.50;;;;;;;15.10;89.88;99076.45;1803103;79;21189;-82
2021/05/18 01:55:10;;;;;;;6.60;2.52;;;;;;;15.03;89.90;99082.06;1802507;79;21855;-83
2021/05/18 01:58:15;;;;;;;8.55;2.47;;;;;;;14.95;90.05;99083.77;1802996;79;21355;-83
2021/05/18 02:01:28;;;;;;;8.85;2.27;;;;;;;14.88;90.24;99088.55;1801514;79;21898;-82
2021/05/18 02:04:56;;;;;;;9.45;2.98;;;;;;;14.84;90.57;99096.97;1802826;79;21295;-83
2021/05/18 02:08:05;;;;;;;10.15;2.80;;;;;;;14.79;90.85;99102.34;1802935;79;21231;-82
2021/05/18 02:11:12;;;;;;;8.35;3.17;;;;;;;14.77;91.24;99107.22;1803378;79;21161;-82
2021/05/18 02:14:28;;;;;;;8.08;3.87;;;;;;;14.78;91.59;99104.80;1802945;79;21287;-82
2021/05/18 02:17:40;;;;;;;7.05;3.25;;;;;;;14.78;91.83;99113.05;1806567;79;21858;-82
2021/05/18 02:20:47;;;;;;;5.47;3.33;;;;;;;14.79;92.20;99117.48;1811539;79;21370;-82
2021/05/18 02:27:17;;;;;;;8.45;3.77;;;;;;;14.88;92.97;99111.11;1809752;79;21184;-83
2021/05/18 02:30:22;;;;;;;9.98;4.00;;;;;;;14.88;92.98;99114.70;1811391;79;21823;-82
2021/05/18 02:33:27;;;;;;;6.58;4.33;;;;;;;14.89;93.17;99109.50;1811525;79;21311;-83
2021/05/18 02:36:33;;;;;;;6.42;3.60;;;;;;;14.93;93.42;99123.10;1810700;79;21744;-83
2021/05/18 02:39:40;;;;;;;8.68;4.40;;;;;;;14.97;93.54;99121.56;1809850;79;21181;-82
2021/05/18 02:42:46;;;;;;;11.20;4.95;;;;;;;15.01;93.46;99122.78;1811418;79;21307;-82
2021/05/18 02:49:10;;;;;;;8.25;4.70;;;;;;;15.13;93.44;99124.18;1811286;79;21283;-83
2021/05/18 02:52:15;;;;;;;10.90;4.72;;;;;;;15.18;93.13;99125.69;1812047;79;21295;-83
2021/05/18 02:55:36;;;;;;;9.75;4.90;;;;;;;15.22;92.88;99132.95;1811157;79;21366;-82
2021/05/18 02:58:35;;;;;;;9.15;5.20;;;;;;;15.25;92.74;99131.13;1811493;79;21343;-82
2021/05/18 03:01:40;;;;;;;7.83;5.67;;;;;;;15.28;92.54;99130.09;1811179;79;21355;-83
2021/05/18 03:04:46;;;;;;;11.12;5.05;;;;;;;15.29;92.31;99127.66;1811606;79;21291;-82
2021/05/18 03:07:54;;;;;;;15.50;5.85;;;;;;;15.31;92.12;99137.05;1811430;79;21288;-83
2021/05/18 03:11:01;;;;;;;8.63;5.20;;;;;;;15.34;91.97;99137.43;1803307;79;21271;-83
2021/05/18 03:14:01;;;;;;;21.27;6.62;;;;;;;15.40;91.48;99134.80;1771940;81;21252;-82
2021/05/18 03:17:08;;;;;;;9.83;5.35;;;;;;;15.43;91.27;99140.69;1790330;79;21335;-82
2021/05/18 03:20:18;;;;;;;10.48;5.70;;;;;;;15.50;90.92;99140.03;1797143;80;21150;-83
2021/05/18 03:23:24;;;;;;;12.88;5.85;;;;;;;15.53;90.56;99137.35;1795027;79;21276;-83
2021/05/18 03:26:30;;;;;;;12.25;6.78;;;;;;;15.58;90.33;99127.30;1778975;80;21878;-83
2021/05/18 03:29:36;;;;;;;13.10;6.58;;;;;;;15.63;89.76;99133.47;1779542;80;22483;-83
2021/05/18 03:36:10;;;;;;;15.78;6.83;;;;;;;15.67;89.05;99136.63;1790243;79;21362;-82
2021/05/18 03:39:15;;;;;;;15.32;7.37;;;;;;;15.68;88.92;99128.66;1778086;79;21276;-83
2021/05/18 03:45:32;;;;;;;11.53;6.78;;;;;;;15.75;88.25;99139.02;1780784;79;21275;-82
2021/05/18 03:48:54;;;;;;;11.00;6.25;;;;;;;15.73;87.98;99143.94;1792874;79;21347;-82
2021/05/18 03:58:54;;;;;;;10.32;7.37;;;;;;;15.76;87.29;99151.72;1789606;79;21323;-82
2021/05/18 04:10:13;;;;;;;12.53;7.03;;;;;;;15.78;86.64;99150.41;1790932;79;20224;-83
2021/05/18 04:12:01;;;;;;;15.28;6.12;;;;;;;15.91;86.29;99148.52;1798408;79;21166;-83
2021/05/18 04:18:21;;;;;;;9.65;5.80;;;;;;;15.96;85.67;99152.77;1788042;79;21272;-83
2021/05/18 04:22:37;;;;;;;11.80;6.33;;;;;;;15.99;85.15;99157.25;1778929;79;21268;-82
2021/05/18 04:51:28;;;;;;;16.48;12.47;;;;;;;16.10;83.05;99159.72;1790879;79;21584;-85
2021/05/18 05:01:11;;;;;;;16.95;11.93;;;;;;;16.39;81.29;99157.90;1784023;79;21315;-84
2021/05/18 05:17:23;;;;;;;17.70;13.55;;;;;;;16.74;79.88;99172.20;1782524;79;21296;-82
2021/05/18 05:20:32;;;;;;;27.70;13.38;;;;;;;16.75;80.08;99171.97;1793023;79;21184;-84
2021/05/18 05:23:39;;;;;;;22.52;14.43;;;;;;;16.80;80.24;99169.86;1798349;79;21569;-82
2021/05/18 05:26:44;;;;;;;23.12;16.25;;;;;;;16.87;80.03;99171.92;1797079;79;21238;-82
2021/05/18 05:29:52;;;;;;;22.93;15.55;;;;;;;17.02;79.95;99161.72;1775962;79;21200;-83
2021/05/18 05:33:04;;;;;;;29.07;16.30;;;;;;;17.23;79.03;99165.73;1772373;79;21974;-83
2021/05/18 05:36:12;;;;;;;22.02;15.10;;;;;;;17.44;78.19;99155.33;1795542;79;21317;-83
2021/05/18 05:39:24;;;;;;;23.85;12.10;;;;;;;17.69;77.69;99149.42;1793309;79;21196;-84
2021/05/18 05:42:30;;;;;;;22.32;11.48;;;;;;;17.95;76.51;99153.46;1755397;80;22409;-83
2021/05/18 05:45:35;;;;;;;19.90;11.40;;;;;;;18.11;75.79;99155.39;1724534;82;22356;-83
2021/05/18 05:48:41;;;;;;;21.35;12.60;;;;;;;18.25;74.66;99155.84;1735636;82;22255;-83
2021/05/18 05:51:47;;;;;;;21.73;14.95;;;;;;;18.38;73.92;99158.81;1756487;80;21264;-83
2021/05/18 05:54:57;;;;;;;19.48;13.83;;;;;;;18.52;72.79;99158.73;1735764;81;21235;-85
2021/05/18 05:58:02;;;;;;;22.82;15.50;;;;;;;18.50;72.18;99156.78;1753532;80;21288;-83
2021/05/18 06:01:10;;;;;;;28.90;15.85;;;;;;;18.45;72.24;99152.55;1741246;81;21199;-84
2021/05/18 06:04:17;;;;;;;25.17;16.00;;;;;;;18.45;72.83;99147.02;1735846;81;21235;-83
2021/05/18 06:07:23;;;;;;;26.35;16.52;;;;;;;18.58;72.94;99147.16;1758477;80;21216;-83
2021/05/18 06:10:33;;;;;;;25.60;18.07;;;;;;;18.80;72.78;99141.67;1761360;80;21931;-83
2021/05/18 06:37:41;;;;;;;15.43;11.40;;;;;;;19.70;66.93;99140.70;1783674;79;21275;-84
2021/05/18 06:45:42;;;;;;;19.52;12.35;;;;;;;20.05;65.47;99131.83;1784246;79;21249;-85
2021/05/18 06:46:59;;;;;;;12.78;9.68;;;;;;;20.09;65.29;99132.94;1778165;79;21319;-83
2021/05/18 06:50:22;;;;;;;9.43;7.15;;;;;;;20.11;65.14;99126.59;1782556;79;21307;-82
2021/05/18 06:53:16;;;;;;;11.88;8.25;;;;;;;20.22;65.06;99124.16;1777948;79;21306;-82
2021/05/18 06:56:21;;;;;;;11.95;9.00;;;;;;;20.29;65.52;99119.22;1779646;79;21323;-82
2021/05/18 07:02:33;;;;;;;16.52;11.25;;;;;;;20.46;64.76;99111.23;1781506;79;21819;-83
2021/05/18 07:06:03;;;;;;;15.68;10.80;;;;;;;20.63;64.51;99108.58;1779929;79;21783;-83
2021/05/18 07:08:59;;;;;;;17.75;12.10;;;;;;;21.01;64.49;99106.48;1780158;79;21359;-82
2021/05/18 07:12:09;;;;;;;14.60;10.75;;;;;;;21.41;62.49;99107.73;1785168;79;21208;-82
2021/05/18 07:15:18;;;;;;;14.00;11.60;;;;;;;21.50;60.82;99109.37;1782152;79;21180;-83
2021/05/18 07:18:27;;;;;;;13.53;11.25;;;;;;;21.47;60.32;99096.88;1781275;79;21189;-81
2021/05/18 07:21:36;;;;;;;12.13;8.15;;;;;;;21.61;60.67;99099.38;1762830;78;21530;-82
2021/05/18 07:24:43;;;;;;;8.75;5.85;;;;;;;21.90;59.31;99101.03;1779145;79;21181;-83
2021/05/18 07:27:50;;;;;;;9.88;5.30;;;;;;;21.90;58.96;99094.64;1781895;79;21334;-83
2021/05/18 07:30:56;;;;;;;18.52;5.87;;;;;;;21.70;59.52;99099.67;1783401;79;21296;-84
2021/05/18 07:34:04;;;;;;;6.90;5.05;;;;;;;21.52;60.27;99101.05;1785855;79;21312;-82
2021/05/18 07:37:13;;;;;;;14.87;5.50;;;;;;;21.58;60.58;99099.09;1782561;79;21330;-84
2021/05/18 07:40:20;;;;;;;10.20;6.22;;;;;;;21.83;61.00;99092.68;1786702;79;21688;-82
2021/05/18 07:43:28;;;;;;;10.78;6.35;;;;;;;22.08;59.80;99094.62;1785707;79;21346;-83
2021/05/18 07:46:43;;;;;;;9.68;6.22;;;;;;;22.12;58.63;99095.77;1779071;79;21307;-83
2021/05/18 07:49:53;;;;;;;12.43;6.67;;;;;;;21.95;59.07;99094.63;1724405;81;21962;-83
2021/05/18 07:59:38;;;;;;;8.20;6.00;;;;;;;21.77;59.84;99097.42;1727984;79;21527;-84
2021/05/18 08:06:03;;;;;;;14.60;5.53;;;;;;;21.72;59.51;99091.03;1779681;79;21164;-83
2021/05/18 08:09:23;;;;;;;10.75;5.83;;;;;;;21.72;60.22;99082.12;1768201;79;21204;-82
2021/05/18 08:12:24;;;;;;;7.50;5.20;;;;;;;21.94;59.50;99077.66;1782970;79;21282;-83
2021/05/18 08:15:37;;;;;;;10.88;4.83;;;;;;;22.16;58.23;99075.42;1765978;79;21795;-82
2021/05/18 08:19:40;;;;;;;6.92;4.05;;;;;;;22.20;57.39;99069.54;1783981;79;21314;-84
2021/05/18 08:22:15;;;;;;;6.67;3.80;;;;;;;22.20;57.90;99067.31;1774220;79;21189;-84
2021/05/18 08:48:00;;;;;;;4.78;2.50;;;;;;;22.18;57.35;99060.65;1763515;79;21298;-84
2021/05/18 09:30:28;;;;;;;4.40;1.62;;;;;;;23.18;53.44;99046.25;1753026;80;21201;-82
2021/05/18 09:42:12;;;;;;;3.65;1.75;;;;;;;23.76;51.35;99049.71;1754155;80;21331;-81
2021/05/18 10:37:50;;;;;;;3.62;1.60;;;;;;;23.78;46.40;99016.20;1643988;86;21218;-83
2021/05/18 10:40:57;;;;;;;5.70;1.60;;;;;;;23.76;47.12;99003.65;1673490;85;21405;-82
2021/05/18 10:44:13;;;;;;;1.95;1.10;;;;;;;23.76;47.51;98995.28;1669138;85;21383;-82
2021/05/18 10:47:51;;;;;;;3.92;1.47;;;;;;;23.81;47.64;98992.45;1822911;76;22317;-82
2021/05/18 10:50:59;;;;;;;2.70;1.77;;;;;;;23.72;47.28;98990.87;1762018;80;21287;-85
2021/05/18 10:54:27;;;;;;;6.12;2.00;;;;;;;23.65;47.72;98993.98;1762457;79;21180;-84
2021/05/18 10:57:37;;;;;;;3.42;1.77;;;;;;;23.78;47.64;98994.44;1760686;80;21665;-84
2021/05/18 11:00:43;;;;;;;2.90;1.90;;;;;;;23.97;47.42;98997.56;1764734;80;21228;-83
2021/05/18 11:03:51;;;;;;;5.72;1.80;;;;;;;24.03;47.03;98994.71;1758108;80;21310;-84
2021/05/18 11:07:09;;;;;;;4.28;1.67;;;;;;;24.05;47.22;98983.53;1723396;80;21168;-85
2021/05/18 11:10:22;;;;;;;4.42;1.98;;;;;;;24.14;46.94;98971.97;1710669;81;21333;-85
2021/05/18 11:13:30;;;;;;;3.08;1.52;;;;;;;24.28;47.53;98965.63;1712565;81;21318;-84
2021/05/18 11:16:42;;;;;;;3.22;1.77;;;;;;;24.41;46.48;98955.98;1714934;81;21297;-84
2021/05/18 11:20:12;;;;;;;;;;;;;;;24.32;45.49;98970.89;1718019;81;21959;-86
2021/05/18 11:23:33;;;;;;;5.58;1.57;;;;;;;24.15;46.24;98972.80;1718311;81;20238;-80
2021/05/18 11:26:38;;;;;;;3.90;1.50;;;;;;;24.12;46.79;98971.42;1698235;83;21949;-79
2021/05/18 11:29:49;;;;;;;3.72;1.50;;;;;;;24.36;47.10;98952.40;1689125;82;21634;-79
2021/05/18 11:32:58;;;;;;;4.28;1.75;;;;;;;24.43;46.68;98959.33;1718301;81;21336;-79
2021/05/18 11:36:18;;;;;;;10.38;1.70;;;;;;;24.33;46.30;98943.23;1694728;82;21533;-79
2021/05/18 11:39:36;;;;;;;5.92;1.85;;;;;;;24.16;47.71;98945.95;1726293;82;21192;-79
2021/05/18 11:42:41;;;;;;;11.20;1.87;;;;;;;23.87;47.04;98944.63;1714387;82;21300;-78
2021/05/18 11:45:48;;;;;;;4.67;2.75;;;;;;;23.48;48.92;98941.95;1730327;82;21184;-79
2021/05/18 11:49:11;;;;;;;10.30;2.00;;;;;;;23.21;48.64;98938.30;1697077;83;21894;-80
2021/05/18 11:52:17;;;;;;;5.58;1.80;;;;;;;22.99;50.00;98941.54;1698209;82;21693;-80
2021/05/18 11:55:32;;;;;;;4.85;2.15;;;;;;;22.81;51.09;98938.02;1675757;82;21773;-81
2021/05/18 11:58:38;;;;;;;8.43;1.95;;;;;;;22.63;51.91;98932.03;1704780;83;21368;-81
2021/05/18 12:01:52;;;;;;;3.50;1.92;;;;;;;22.55;51.59;98927.06;1707391;83;21720;-81
2021/05/18 12:04:59;;;;;;;9.80;2.05;;;;;;;22.50;52.23;98922.91;1704522;83;21157;-81
2021/05/18 12:08:04;;;;;;;5.70;1.75;;;;;;;22.52;53.27;98919.27;1678723;83;21209;-81
2021/05/18 12:11:24;;;;;;;3.70;1.50;;;;;;;22.50;50.49;98916.52;1707536;82;21552;-88
2021/05/18 12:14:30;;;;;;;3.55;1.90;;;;;;;22.37;51.35;98910.44;1669215;82;21774;-87
2021/05/18 12:17:38;;;;;;;4.08;2.08;;;;;;;22.31;53.10;98898.23;1667815;83;21273;-87
2021/05/18 12:20:43;;;;;;;4.47;1.92;;;;;;;22.31;51.96;98892.11;1703664;83;21259;-86
2021/05/18 12:23:50;;;;;;;3.83;1.75;;;;;;;22.30;52.92;98887.66;1655385;83;21320;-87
2021/05/18 12:26:57;;;;;;;;;;;;;;;22.36;53.11;98874.53;1722029;82;21280;-88
2021/05/18 12:30:03;;;;;;;4.37;1.80;;;;;;;22.37;52.16;98878.98;1717644;81;20208;-81
2021/05/18 12:33:09;;;;;;;6.83;2.10;;;;;;;22.34;52.33;98869.80;1717017;82;21343;-82
2021/05/18 12:36:16;;;;;;;6.85;1.85;;;;;;;22.29;52.10;98869.83;1714286;82;21212;-88
2021/05/18 12:39:23;;;;;;;16.45;2.27;;;;;;;22.14;52.43;98871.58;1693147;82;21223;-87
2021/05/18 12:42:32;;;;;;;8.18;2.58;;;;;;;21.92;53.03;98873.35;1716351;82;21434;-87
2021/05/18 12:45:39;;;;;;;9.38;2.30;;;;;;;21.66;53.98;98869.83;1713882;82;21250;-87
2021/05/18 12:48:49;;;;;;;5.45;2.00;;;;;;;21.49;54.50;98874.05;1712428;82;21299;-84
2021/05/18 12:52:17;;;;;;;2.80;1.60;;;;;;;21.47;55.91;98875.73;1714570;82;21754;-83
2021/05/18 12:55:35;;;;;;;5.08;1.85;;;;;;;21.59;55.71;98862.89;1714022;82;21305;-84
2021/05/18 12:58:43;;;;;;;9.50;2.20;;;;;;;21.71;55.40;98860.63;1717262;82;21313;-85
2021/05/18 13:01:50;;;;;;;3.42;1.62;;;;;;;21.66;55.39;98854.52;1702323;82;21173;-84
2021/05/18 13:05:00;;;;;;;9.08;2.10;;;;;;;21.58;54.96;98862.62;1723577;82;21963;-84
2021/05/18 13:08:26;;;;;;;7.77;2.20;;;;;;;21.43;55.94;98867.67;1707946;83;21337;-84
2021/05/18 13:15:06;;;;;;;4.78;2.12;;;;;;;20.92;58.89;98903.85;1686029;84;21880;-83
2021/05/18 13:18:15;;;;;;;7.53;2.02;;;;;;;20.63;61.07;98918.28;1679674;83;21366;-83
2021/05/18 13:21:34;;;;;;;6.67;2.45;;;;;;;20.29;64.18;98914.31;1713597;83;21241;-80
2021/05/18 13:28:04;;;;;;;4.85;2.22;;;;;;;19.39;68.58;98938.00;1643852;85;22141;-81
2021/05/18 13:31:09;;;;;;;5.87;2.85;;;;;;;18.97;70.95;98963.73;1687435;83;21304;-82
2021/05/18 13:34:14;;;;;;;7.00;2.42;;;;;;;18.74;73.17;98969.05;1724874;82;21685;-81
2021/05/18 13:37:22;;;;;;;6.50;2.33;;;;;;;18.59;74.06;98976.62;1700724;83;21814;-80
2021/05/18 13:40:29;;;;;;;4.40;1.90;;;;;;;18.40;73.85;98983.62;1703949;84;21868;-80
2021/05/18 13:43:36;;;;;;;5.67;1.90;;;;;;;18.09;74.37;98992.92;1704462;83;21296;-80
2021/05/18 13:46:42;;;;;;;3.77;2.02;;;;;;;17.80;75.37;98988.12;1681745;85;21294;-79
2021/05/18 13:49:48;;;;;;;7.28;2.20;;;;;;;17.57;76.53;98987.75;1704327;83;21273;-79
2021/05/18 13:52:54;;;;;;;3.45;1.65;;;;;;;17.43;78.05;98991.12;1695074;83;21795;-79
2021/05/18 13:55:59;;;;;;;6.67;2.30;;;;;;;17.38;79.35;98984.42;1694989;84;21356;-80
2021/05/18 13:59:04;;;;;;;5.78;2.20;;;;;;;17.29;80.00;98977.65;1690754;84;21853;-79
2021/05/18 14:02:10;;;;;;;5.00;2.83;;;;;;;17.29;80.91;98978.20;1716966;83;21794;-79
2021/05/18 14:05:18;;;;;;;5.83;2.55;;;;;;;17.31;81.39;98978.25;1734867;82;21312;-80
2021/05/18 14:08:36;;;;;;;5.53;2.65;;;;;;;17.27;81.66;98980.39;1707088;84;21326;-80
2021/05/18 14:11:41;;;;;;;9.83;2.60;;;;;;;17.23;82.29;98987.51;1720506;83;21218;-80
2021/05/18 14:14:48;;;;;;;7.03;2.80;;;;;;;17.17;82.76;98981.03;1711567;84;21296;-80
2021/05/18 14:17:53;;;;;;;5.28;2.55;;;;;;;17.11;83.27;98979.28;1725019;83;21862;-79
2021/05/18 14:21:00;;;;;;;5.47;2.40;;;;;;;17.11;84.14;98974.59;1711862;84;21279;-80
2021/05/18 14:24:20;;;;;;;5.87;2.98;;;;;;;17.18;84.84;98966.70;1723715;83;21209;-80
2021/05/18 14:27:18;;;;;;;2.50;2.30;;;;;;;17.25;85.17;98970.11;1711817;83;21280;-80
2021/05/18 14:30:26;;;;;;;16.45;2.50;;;;;;;17.30;85.39;98978.48;1725185;83;21285;-79
2021/05/18 14:33:32;;;;;;;7.17;2.00;;;;;;;17.31;85.33;98987.92;1711812;83;21850;-80
2021/05/18 14:36:36;;;;;;;6.90;2.40;;;;;;;17.33;85.25;98989.05;1725236;83;21277;-79
2021/05/18 14:39:56;;;;;;;13.08;2.10;;;;;;;17.26;84.45;98989.75;1711888;84;21272;-80
2021/05/18 14:43:27;;;;;;;3.65;2.30;;;;;;;17.19;84.29;98975.28;1725175;83;21660;-80
2021/05/18 14:46:21;;;;;;;3.33;2.27;;;;;;;17.06;84.42;98966.77;1711900;84;21200;-80
2021/05/18 14:56:11;;;;;;;2.60;1.98;;;;;;;16.72;85.71;98952.95;1780563;80;21807;-82
2021/05/18 14:59:19;;;;;;;2.50;1.87;;;;;;;16.64;86.07;98951.10;1780520;80;21295;-80
2021/05/18 15:02:26;;;;;;;2.25;1.85;;;;;;;16.54;86.17;98942.93;1779014;79;21267;-80
2021/05/18 15:05:32;;;;;;;7.45;1.95;;;;;;;16.46;86.08;98942.48;1712276;84;21347;-80
2021/05/18 15:08:38;;;;;;;3.42;2.20;;;;;;;16.37;86.18;98937.91;1778941;80;21311;-80
2021/05/18 15:11:44;;;;;;;4.35;2.30;;;;;;;16.28;86.17;98938.88;1741844;82;21328;-80
2021/05/18 15:14:51;;;;;;;3.37;2.17;;;;;;;16.19;86.35;98939.52;1712315;84;21202;-81
2021/05/18 15:17:58;;;;;;;2.77;2.17;;;;;;;16.17;86.68;98947.19;1769403;80;21296;-81
2021/05/18 15:21:04;;;;;;;4.10;2.37;;;;;;;16.17;87.17;98938.91;1749157;81;21173;-80
2021/05/18 15:24:10;;;;;;;4.58;2.17;;;;;;;16.14;87.50;98936.12;1749710;82;21312;-80
2021/05/18 15:27:15;;;;;;;5.35;1.92;;;;;;;16.08;87.75;98929.63;1749750;82;21821;-80
2021/05/18 15:30:22;;;;;;;4.37;2.30;;;;;;;16.06;87.99;98927.68;1749795;82;21292;-81
2021/05/18 15:33:29;;;;;;;5.78;2.40;;;;;;;16.02;88.18;98930.62;1743939;80;21314;-81
2021/05/18 15:36:33;;;;;;;4.08;2.40;;;;;;;15.99;88.45;98925.59;1739174;82;21314;-81
2021/05/18 15:39:41;;;;;;;3.22;2.25;;;;;;;16.04;88.82;98921.58;1739329;82;21885;-82
2021/05/18 15:42:47;;;;;;;8.80;2.72;;;;;;;16.07;88.86;98925.20;1739176;82;21837;-82
2021/05/18 15:45:52;;;;;;;5.08;2.10;;;;;;;16.07;89.10;98911.97;1739156;82;21295;-82
2021/05/18 15:48:58;;;;;;;2.90;2.20;;;;;;;16.07;89.21;98915.55;1739164;82;21247;-82
2021/05/18 15:52:05;;;;;;;5.78;2.02;;;;;;;16.07;89.35;98918.86;1746828;82;21874;-83
2021/05/18 15:55:13;;;;;;;5.83;2.33;;;;;;;16.05;89.51;98914.98;1752996;82;21804;-83
2021/05/18 15:58:20;;;;;;;5.35;2.75;;;;;;;16.05;89.59;98908.08;1752965;82;21322;-83
2021/05/18 16:01:26;;;;;;;5.10;2.70;;;;;;;16.05;89.78;98910.84;1752777;82;21278;-83
2021/05/18 16:04:32;;;;;;;3.27;2.58;;;;;;;16.02;89.93;98913.25;1752986;82;21294;-83
2021/05/18 16:07:41;;;;;;;5.78;2.27;;;;;;;15.98;90.01;98909.30;1752652;82;21806;-82
2021/05/18 16:10:48;;;;;;;5.10;2.80;;;;;;;15.96;90.19;98912.31;1752980;82;21337;-84
2021/05/18 16:13:53;;;;;;;3.67;2.50;;;;;;;15.95;90.30;98909.27;1752989;82;21875;-82
2021/05/18 16:16:59;;;;;;;7.25;2.72;;;;;;;15.92;90.50;98910.29;1753020;82;21266;-83
2021/05/18 16:20:05;;;;;;;3.72;2.50;;;;;;;15.88;90.84;98895.31;1751324;82;21733;-82
2021/05/18 16:23:11;;;;;;;6.08;3.08;;;;;;;15.85;91.16;98904.89;1732186;82;21655;-83
2021/05/18 16:26:16;;;;;;;10.60;2.70;;;;;;;15.83;91.60;98908.45;1752825;80;21338;-82
2021/05/18 16:29:22;;;;;;;9.73;3.05;;;;;;;15.80;92.02;98907.01;1752672;82;21299;-84
2021/05/18 16:32:29;;;;;;;4.62;3.22;;;;;;;15.78;92.57;98897.33;1752855;82;21334;-82
2021/05/18 16:35:37;;;;;;;2.85;2.60;;;;;;;15.76;93.28;98893.95;1752885;82;21281;-82
2021/05/18 16:38:43;;;;;;;6.42;3.42;;;;;;;15.75;93.89;98890.91;1752939;82;21629;-82
2021/05/18 16:41:51;;;;;;;3.92;2.87;;;;;;;15.75;94.49;98889.53;1751533;82;21278;-84
2021/05/18 16:44:58;;;;;;;4.70;3.15;;;;;;;15.75;94.94;98884.85;1753000;82;21156;-82
2021/05/18 16:48:03;;;;;;;3.90;2.80;;;;;;;15.78;95.41;98880.78;1752897;82;21781;-83
2021/05/18 16:51:11;;;;;;;5.25;3.10;;;;;;;15.79;95.72;98883.28;1752871;82;21768;-82
2021/05/18 16:54:18;;;;;;;6.35;3.30;;;;;;;15.83;95.90;98878.13;1752977;82;21321;-82
2021/05/18 16:57:23;;;;;;;7.47;3.60;;;;;;;15.84;95.98;98874.28;1752947;82;21279;-82
2021/05/18 17:00:30;;;;;;;4.55;2.85;;;;;;;15.85;96.13;98871.81;1730058;82;21267;-82
2021/05/18 17:03:34;;;;;;;9.48;3.30;;;;;;;15.84;96.26;98875.11;1731813;82;21836;-82
2021/05/18 17:06:42;;;;;;;2.72;2.42;;;;;;;15.84;96.37;98875.66;1752663;82;21191;-82
2021/05/18 17:09:49;;;;;;;5.72;3.30;;;;;;;15.83;96.67;98868.48;1753043;82;21216;-84
2021/05/18 17:13:00;;;;;;;5.85;3.37;;;;;;;15.84;96.92;98869.59;1752890;82;21313;-82
2021/05/18 17:16:07;;;;;;;4.33;3.65;;;;;;;15.79;97.04;98863.98;1730788;82;21167;-84
2021/05/18 17:19:12;;;;;;;4.28;3.40;;;;;;;15.78;97.30;98867.00;1752624;82;21336;-84
2021/05/18 17:22:20;;;;;;;4.92;3.45;;;;;;;15.74;97.57;98875.45;1752318;82;21845;-84
2021/05/18 17:25:26;;;;;;;3.33;3.02;;;;;;;15.70;97.82;98864.63;1752881;82;21270;-84
2021/05/18 17:28:37;;;;;;;5.30;3.30;;;;;;;15.69;98.18;98875.36;1752754;82;21848;-82
2021/05/18 17:31:43;;;;;;;3.87;3.37;;;;;;;15.69;98.44;98867.92;1752676;82;21298;-82
2021/05/18 17:34:51;;;;;;;12.53;3.50;;;;;;;15.72;98.61;98873.50;1752790;82;21215;-82
2021/05/18 17:37:56;;;;;;;4.72;3.55;;;;;;;15.73;98.55;98872.41;1752646;82;21741;-82
2021/05/18 17:41:02;;;;;;;5.75;3.98;;;;;;;15.74;98.42;98874.08;1753060;82;21840;-82
2021/05/18 17:44:08;;;;;;;8.98;3.95;;;;;;;15.71;98.18;98886.42;1752845;82;21195;-84
2021/05/18 17:47:17;;;;;;;7.33;4.20;;;;;;;15.67;97.95;98889.39;1733041;82;21879;-85
2021/05/18 17:50:26;;;;;;;5.87;3.90;;;;;;;15.61;97.56;98884.80;1752887;82;21290;-82
2021/05/18 17:53:31;;;;;;;8.15;4.10;;;;;;;15.54;97.19;98886.33;1751184;82;21294;-82
2021/05/18 17:56:38;;;;;;;6.45;4.15;;;;;;;15.48;96.85;98890.06;1752987;82;21160;-84
2021/05/18 17:59:44;;;;;;;6.87;4.37;;;;;;;15.41;96.62;98892.09;1752967;82;21286;-84
2021/05/18 18:02:50;;;;;;;6.72;4.33;;;;;;;15.35;96.62;98891.70;1752529;82;21875;-83
2021/05/18 18:05:56;;;;;;;6.35;4.62;;;;;;;15.32;96.73;98894.92;1752591;82;21274;-84
2021/05/18 18:09:03;;;;;;;11.78;5.10;;;;;;;15.25;97.00;98894.23;1752666;82;21310;-84
2021/05/18 18:12:09;;;;;;;7.87;4.78;;;;;;;15.20;97.58;98895.49;1751143;80;21238;-82
2021/05/18 18:15:16;;;;;;;7.58;4.12;;;;;;;15.16;98.38;98883.28;1752996;82;21836;-84
2021/05/18 18:18:23;;;;;;;8.45;4.70;;;;;;;15.12;99.21;98873.28;1751929;82;21891;-84
2021/05/18 18:21:29;;;;;;;6.83;4.28;;;;;;;15.11;99.88;98879.03;1752601;82;21213;-84
2021/05/18 18:24:37;;;;;;;9.03;4.22;;;;;;;15.09;100.00;98875.13;1752579;82;21297;-82
2021/05/18 18:27:43;;;;;;;7.70;4.45;;;;;;;15.05;100.00;98875.30;1731891;82;21314;-84
2021/05/18 18:30:48;;;;;;;7.35;4.58;;;;;;;15.03;100.00;98877.47;1751145;80;21160;-84
2021/05/18 18:33:56;;;;;;;6.37;4.45;;;;;;;14.99;100.00;98878.48;1751710;82;21353;-84
2021/05/18 18:37:04;;;;;;;8.40;4.50;;;;;;;14.97;100.00;98877.89;1752783;82;21164;-84
2021/05/18 18:40:10;;;;;;;13.72;4.85;;;;;;;14.93;100.00;98876.70;1752589;82;21291;-84
2021/05/18 18:43:16;;;;;;;6.47;4.03;;;;;;;14.91;100.00;98873.86;1751756;82;21324;-84
2021/05/18 18:46:22;;;;;;;8.00;4.20;;;;;;;14.90;100.00;98879.91;1752727;82;21317;-82
2021/05/18 18:49:28;;;;;;;7.05;4.62;;;;;;;14.89;100.00;98869.98;1751307;82;21219;-82
2021/05/18 18:55:48;;;;;;;10.18;4.83;;;;;;;14.90;100.00;98873.58;1750823;82;21210;-84
2021/05/18 18:58:55;;;;;;;6.80;4.20;;;;;;;14.91;100.00;98876.08;1752897;82;21302;-82
2021/05/18 19:02:04;;;;;;;8.98;4.95;;;;;;;14.91;100.00;98869.20;1752779;80;21274;-84
2021/05/18 19:05:19;;;;;;;6.78;4.08;;;;;;;14.93;100.00;98875.31;1752588;82;21199;-84
2021/05/18 19:12:38;;;;;;;6.90;5.10;;;;;;;14.95;100.00;98872.31;1753399;82;21784;-82